sensor_id;sensor_type;location;lat;lon;timestamp;P1;durP1;ratioP1;P2;durP2;ratioP2
10473;SDS011;5284;50.446;7.904;2023-01-10T00:00:57;4.00;;;2.03;;
10473;SDS011;5284;50.446;7.904;2023-01-10T00:06:06;4.07;;;2.17;;
10473;SDS011;5284;50.446;7.904;2023-01-10T00:11:09;6.47;;;2.40;;
10473;SDS011;5284;50.446;7.904;2023-01-10T00:16:27;17.13;;;3.40;;
10473;SDS011;5284;50.446;7.904;2023-01-10T00:21:30;3.47;;;2.05;;
10473;SDS011;5284;50.446;7.904;2023-01-10T00:26:33;7.22;;;2.65;;
10473;SDS011;5284;50.446;7.904;2023-01-10T00:31:37;5.80;;;2.90;;
10473;SDS011;5284;50.446;7.904;2023-01-10T00:36:39;5.35;;;1.90;;
10473;SDS011;5284;50.446;7.904;2023-01-10T00:41:43;8.52;;;2.55;;
10473;SDS011;5284;50.446;7.904;2023-01-10T00:47:05;8.50;;;3.33;;
10473;SDS011;5284;50.446;7.904;2023-01-10T00:52:08;9.13;;;2.75;;
10473;SDS011;5284;50.446;7.904;2023-01-10T00:57:11;8.10;;;3.05;;
10473;SDS011;5284;50.446;7.904;2023-01-10T01:02:15;7.57;;;3.22;;
10473;SDS011;5284;50.446;7.904;2023-01-10T01:07:18;11.75;;;2.50;;
10473;SDS011;5284;50.446;7.904;2023-01-10T01:12:21;13.32;;;3.10;;
10473;SDS011;5284;50.446;7.904;2023-01-10T01:17:25;13.15;;;3.95;;
10473;SDS011;5284;50.446;7.904;2023-01-10T01:22:28;10.85;;;3.17;;
10473;SDS011;5284;50.446;7.904;2023-01-10T01:27:31;10.02;;;3.30;;
10473;SDS011;5284;50.446;7.904;2023-01-10T01:32:36;14.43;;;3.28;;
10473;SDS011;5284;50.446;7.904;2023-01-10T01:37:39;15.68;;;4.57;;
10473;SDS011;5284;50.446;7.904;2023-01-10T01:42:42;15.77;;;3.05;;
10473;SDS011;5284;50.446;7.904;2023-01-10T01:47:48;11.15;;;2.63;;
10473;SDS011;5284;50.446;7.904;2023-01-10T01:52:55;8.35;;;2.72;;
10473;SDS011;5284;50.446;7.904;2023-01-10T01:58:02;10.30;;;2.60;;
10473;SDS011;5284;50.446;7.904;2023-01-10T02:03:12;16.90;;;2.83;;
10473;SDS011;5284;50.446;7.904;2023-01-10T02:08:16;7.40;;;2.40;;
10473;SDS011;5284;50.446;7.904;2023-01-10T02:13:19;12.30;;;2.28;;
10473;SDS011;5284;50.446;7.904;2023-01-10T02:18:26;11.00;;;1.70;;
10473;SDS011;5284;50.446;7.904;2023-01-10T02:23:42;9.32;;;2.72;;
10473;SDS011;5284;50.446;7.904;2023-01-10T02:29:07;9.82;;;2.42;;
10473;SDS011;5284;50.446;7.904;2023-01-10T02:34:30;16.30;;;2.67;;
10473;SDS011;5284;50.446;7.904;2023-01-10T02:39:45;9.43;;;1.83;;
10473;SDS011;5284;50.446;7.904;2023-01-10T02:44:56;8.98;;;2.35;;
10473;SDS011;5284;50.446;7.904;2023-01-10T02:55:54;11.68;;;2.40;;
10473;SDS011;5284;50.446;7.904;2023-01-10T03:01:10;13.02;;;3.10;;
10473;SDS011;5284;50.446;7.904;2023-01-10T03:06:22;12.48;;;2.35;;
10473;SDS011;5284;50.446;7.904;2023-01-10T03:11:35;4.30;;;1.77;;
10473;SDS011;5284;50.446;7.904;2023-01-10T03:16:45;10.77;;;2.30;;
10473;SDS011;5284;50.446;7.904;2023-01-10T03:21:55;17.25;;;2.92;;
10473;SDS011;5284;50.446;7.904;2023-01-10T03:27:02;6.28;;;2.20;;
10473;SDS011;5284;50.446;7.904;2023-01-10T03:32:10;10.05;;;2.35;;
10473;SDS011;5284;50.446;7.904;2023-01-10T03:37:19;12.73;;;3.22;;
10473;SDS011;5284;50.446;7.904;2023-01-10T03:42:33;11.43;;;2.65;;
10473;SDS011;5284;50.446;7.904;2023-01-10T03:47:56;16.37;;;3.00;;
10473;SDS011;5284;50.446;7.904;2023-01-10T03:53:04;18.38;;;4.68;;
10473;SDS011;5284;50.446;7.904;2023-01-10T03:58:07;19.45;;;3.92;;
10473;SDS011;5284;50.446;7.904;2023-01-10T04:03:10;10.77;;;2.35;;
10473;SDS011;5284;50.446;7.904;2023-01-10T04:08:14;17.85;;;3.72;;
10473;SDS011;5284;50.446;7.904;2023-01-10T04:13:17;12.73;;;2.88;;
10473;SDS011;5284;50.446;7.904;2023-01-10T04:18:20;10.88;;;2.80;;
10473;SDS011;5284;50.446;7.904;2023-01-10T04:23:24;14.02;;;2.80;;
10473;SDS011;5284;50.446;7.904;2023-01-10T04:28:27;21.73;;;4.60;;
10473;SDS011;5284;50.446;7.904;2023-01-10T04:33:30;13.45;;;3.30;;
10473;SDS011;5284;50.446;7.904;2023-01-10T04:38:35;13.63;;;3.22;;
10473;SDS011;5284;50.446;7.904;2023-01-10T04:43:37;26.98;;;4.45;;
10473;SDS011;5284;50.446;7.904;2023-01-10T04:48:40;20.30;;;3.78;;
10473;SDS011;5284;50.446;7.904;2023-01-10T04:53:45;17.05;;;3.58;;
10473;SDS011;5284;50.446;7.904;2023-01-10T04:58:48;25.20;;;3.88;;
10473;SDS011;5284;50.446;7.904;2023-01-10T05:03:54;11.60;;;3.30;;
10473;SDS011;5284;50.446;7.904;2023-01-10T05:08:59;25.35;;;3.78;;
10473;SDS011;5284;50.446;7.904;2023-01-10T05:14:02;17.27;;;4.15;;
10473;SDS011;5284;50.446;7.904;2023-01-10T05:19:04;14.07;;;3.42;;
10473;SDS011;5284;50.446;7.904;2023-01-10T05:24:09;8.00;;;2.63;;
10473;SDS011;5284;50.446;7.904;2023-01-10T05:29:12;13.68;;;3.58;;
10473;SDS011;5284;50.446;7.904;2023-01-10T05:34:15;16.95;;;3.85;;
10473;SDS011;5284;50.446;7.904;2023-01-10T05:39:19;17.83;;;3.28;;
10473;SDS011;5284;50.446;7.904;2023-01-10T05:44:22;17.38;;;3.65;;
10473;SDS011;5284;50.446;7.904;2023-01-10T05:49:25;13.68;;;3.38;;
10473;SDS011;5284;50.446;7.904;2023-01-10T05:54:29;14.25;;;4.78;;
10473;SDS011;5284;50.446;7.904;2023-01-10T05:59:32;17.60;;;3.88;;
10473;SDS011;5284;50.446;7.904;2023-01-10T06:04:35;7.97;;;2.80;;
10473;SDS011;5284;50.446;7.904;2023-01-10T06:09:39;16.45;;;3.50;;
10473;SDS011;5284;50.446;7.904;2023-01-10T06:14:43;15.48;;;3.63;;
10473;SDS011;5284;50.446;7.904;2023-01-10T06:19:46;18.60;;;4.28;;
10473;SDS011;5284;50.446;7.904;2023-01-10T06:24:51;28.75;;;7.90;;
10473;SDS011;5284;50.446;7.904;2023-01-10T06:29:53;17.10;;;4.60;;
10473;SDS011;5284;50.446;7.904;2023-01-10T06:34:57;20.38;;;4.90;;
10473;SDS011;5284;50.446;7.904;2023-01-10T06:40:02;14.48;;;5.35;;
10473;SDS011;5284;50.446;7.904;2023-01-10T06:45:06;15.50;;;3.97;;
10473;SDS011;5284;50.446;7.904;2023-01-10T06:50:10;10.52;;;3.22;;
10473;SDS011;5284;50.446;7.904;2023-01-10T06:55:15;18.65;;;3.35;;
10473;SDS011;5284;50.446;7.904;2023-01-10T07:00:19;12.35;;;3.20;;
10473;SDS011;5284;50.446;7.904;2023-01-10T07:05:23;25.75;;;3.65;;
10473;SDS011;5284;50.446;7.904;2023-01-10T07:10:28;14.40;;;3.92;;
10473;SDS011;5284;50.446;7.904;2023-01-10T07:15:31;22.75;;;5.40;;
10473;SDS011;5284;50.446;7.904;2023-01-10T07:20:33;19.23;;;4.63;;
10473;SDS011;5284;50.446;7.904;2023-01-10T07:25:38;19.58;;;3.35;;
10473;SDS011;5284;50.446;7.904;2023-01-10T07:30:41;19.80;;;5.85;;
10473;SDS011;5284;50.446;7.904;2023-01-10T07:35:44;23.67;;;5.28;;
10473;SDS011;5284;50.446;7.904;2023-01-10T07:40:48;40.20;;;7.20;;
10473;SDS011;5284;50.446;7.904;2023-01-10T07:45:53;30.17;;;4.90;;
10473;SDS011;5284;50.446;7.904;2023-01-10T07:50:56;31.23;;;5.30;;
10473;SDS011;5284;50.446;7.904;2023-01-10T07:56:03;20.92;;;4.28;;
10473;SDS011;5284;50.446;7.904;2023-01-10T08:01:07;31.63;;;8.00;;
10473;SDS011;5284;50.446;7.904;2023-01-10T08:06:11;28.02;;;6.93;;
10473;SDS011;5284;50.446;7.904;2023-01-10T08:11:19;27.58;;;5.10;;
10473;SDS011;5284;50.446;7.904;2023-01-10T08:16:25;20.90;;;4.32;;
10473;SDS011;5284;50.446;7.904;2023-01-10T08:21:28;22.00;;;5.97;;
10473;SDS011;5284;50.446;7.904;2023-01-10T08:26:33;24.92;;;3.38;;
10473;SDS011;5284;50.446;7.904;2023-01-10T08:31:39;30.52;;;4.07;;
10473;SDS011;5284;50.446;7.904;2023-01-10T08:36:48;18.60;;;3.83;;
10473;SDS011;5284;50.446;7.904;2023-01-10T08:41:53;22.17;;;3.35;;
10473;SDS011;5284;50.446;7.904;2023-01-10T08:46:56;34.70;;;4.63;;
10473;SDS011;5284;50.446;7.904;2023-01-10T08:51:59;35.72;;;4.47;;
10473;SDS011;5284;50.446;7.904;2023-01-10T08:57:05;27.15;;;3.42;;
10473;SDS011;5284;50.446;7.904;2023-01-10T09:02:09;25.40;;;4.13;;
10473;SDS011;5284;50.446;7.904;2023-01-10T09:07:14;26.38;;;3.35;;
10473;SDS011;5284;50.446;7.904;2023-01-10T09:12:18;23.63;;;4.07;;
10473;SDS011;5284;50.446;7.904;2023-01-10T09:17:39;26.75;;;4.25;;
10473;SDS011;5284;50.446;7.904;2023-01-10T09:22:45;31.38;;;4.13;;
10473;SDS011;5284;50.446;7.904;2023-01-10T09:27:55;20.98;;;4.65;;
10473;SDS011;5284;50.446;7.904;2023-01-10T09:32:59;30.20;;;3.88;;
10473;SDS011;5284;50.446;7.904;2023-01-10T09:38:09;22.48;;;3.63;;
10473;SDS011;5284;50.446;7.904;2023-01-10T09:43:18;27.17;;;5.28;;
10473;SDS011;5284;50.446;7.904;2023-01-10T09:48:30;25.90;;;4.78;;
10473;SDS011;5284;50.446;7.904;2023-01-10T09:53:44;37.25;;;4.53;;
10473;SDS011;5284;50.446;7.904;2023-01-10T09:58:50;25.73;;;3.95;;
10473;SDS011;5284;50.446;7.904;2023-01-10T10:03:55;34.40;;;5.10;;
10473;SDS011;5284;50.446;7.904;2023-01-10T10:09:05;21.92;;;4.07;;
10473;SDS011;5284;50.446;7.904;2023-01-10T10:14:16;16.67;;;3.20;;
10473;SDS011;5284;50.446;7.904;2023-01-10T10:19:29;20.80;;;2.85;;
10473;SDS011;5284;50.446;7.904;2023-01-10T10:24:50;24.85;;;3.72;;
10473;SDS011;5284;50.446;7.904;2023-01-10T10:30:11;12.88;;;3.38;;
10473;SDS011;5284;50.446;7.904;2023-01-10T10:35:28;14.25;;;3.65;;
10473;SDS011;5284;50.446;7.904;2023-01-10T10:40:35;24.35;;;4.40;;
10473;SDS011;5284;50.446;7.904;2023-01-10T10:45:44;21.98;;;3.85;;
10473;SDS011;5284;50.446;7.904;2023-01-10T10:50:58;23.10;;;4.13;;
10473;SDS011;5284;50.446;7.904;2023-01-10T10:56:10;22.60;;;4.50;;
10473;SDS011;5284;50.446;7.904;2023-01-10T11:01:18;23.73;;;3.47;;
10473;SDS011;5284;50.446;7.904;2023-01-10T11:06:31;23.08;;;3.95;;
10473;SDS011;5284;50.446;7.904;2023-01-10T11:11:37;17.75;;;3.38;;
10473;SDS011;5284;50.446;7.904;2023-01-10T11:16:47;25.23;;;4.32;;
10473;SDS011;5284;50.446;7.904;2023-01-10T11:21:51;22.20;;;3.90;;
10473;SDS011;5284;50.446;7.904;2023-01-10T11:26:57;20.90;;;3.83;;
10473;SDS011;5284;50.446;7.904;2023-01-10T11:32:08;18.25;;;3.17;;
10473;SDS011;5284;50.446;7.904;2023-01-10T11:37:20;15.43;;;2.92;;
10473;SDS011;5284;50.446;7.904;2023-01-10T11:42:26;19.25;;;3.95;;
10473;SDS011;5284;50.446;7.904;2023-01-10T11:47:32;15.45;;;3.15;;
10473;SDS011;5284;50.446;7.904;2023-01-10T11:52:45;20.90;;;3.55;;
10473;SDS011;5284;50.446;7.904;2023-01-10T11:57:54;12.65;;;3.35;;
10473;SDS011;5284;50.446;7.904;2023-01-10T12:03:03;19.10;;;4.32;;
10473;SDS011;5284;50.446;7.904;2023-01-10T12:08:23;16.42;;;3.80;;
10473;SDS011;5284;50.446;7.904;2023-01-10T12:13:28;13.23;;;3.45;;
10473;SDS011;5284;50.446;7.904;2023-01-10T12:18:33;27.40;;;4.35;;
10473;SDS011;5284;50.446;7.904;2023-01-10T12:23:37;34.97;;;6.15;;
10473;SDS011;5284;50.446;7.904;2023-01-10T12:28:43;40.70;;;5.32;;
10473;SDS011;5284;50.446;7.904;2023-01-10T12:33:57;25.35;;;4.43;;
10473;SDS011;5284;50.446;7.904;2023-01-10T12:39:10;19.38;;;3.28;;
10473;SDS011;5284;50.446;7.904;2023-01-10T12:44:17;32.83;;;4.88;;
10473;SDS011;5284;50.446;7.904;2023-01-10T12:49:27;24.70;;;4.15;;
10473;SDS011;5284;50.446;7.904;2023-01-10T12:54:33;28.67;;;5.88;;
10473;SDS011;5284;50.446;7.904;2023-01-10T12:59:36;18.70;;;3.15;;
10473;SDS011;5284;50.446;7.904;2023-01-10T13:04:44;15.57;;;3.10;;
10473;SDS011;5284;50.446;7.904;2023-01-10T13:09:54;27.17;;;3.92;;
10473;SDS011;5284;50.446;7.904;2023-01-10T13:14:58;18.73;;;3.80;;
10473;SDS011;5284;50.446;7.904;2023-01-10T13:20:27;33.00;;;4.63;;
10473;SDS011;5284;50.446;7.904;2023-01-10T13:25:41;24.25;;;3.75;;
10473;SDS011;5284;50.446;7.904;2023-01-10T13:30:58;23.25;;;3.53;;
10473;SDS011;5284;50.446;7.904;2023-01-10T13:36:09;23.25;;;4.30;;
10473;SDS011;5284;50.446;7.904;2023-01-10T13:41:15;28.70;;;4.20;;
10473;SDS011;5284;50.446;7.904;2023-01-10T13:46:47;31.75;;;5.10;;
10473;SDS011;5284;50.446;7.904;2023-01-10T13:57:51;23.65;;;4.60;;
10473;SDS011;5284;50.446;7.904;2023-01-10T14:02:55;18.55;;;3.25;;
10473;SDS011;5284;50.446;7.904;2023-01-10T14:07:59;33.60;;;5.03;;
10473;SDS011;5284;50.446;7.904;2023-01-10T14:13:04;15.23;;;3.00;;
10473;SDS011;5284;50.446;7.904;2023-01-10T14:18:18;23.10;;;3.85;;
10473;SDS011;5284;50.446;7.904;2023-01-10T14:23:25;36.28;;;4.50;;
10473;SDS011;5284;50.446;7.904;2023-01-10T14:28:35;19.25;;;3.70;;
10473;SDS011;5284;50.446;7.904;2023-01-10T14:33:38;28.02;;;5.07;;
10473;SDS011;5284;50.446;7.904;2023-01-10T14:38:45;23.35;;;3.55;;
10473;SDS011;5284;50.446;7.904;2023-01-10T14:43:53;27.10;;;3.55;;
10473;SDS011;5284;50.446;7.904;2023-01-10T14:49:00;30.58;;;4.22;;
10473;SDS011;5284;50.446;7.904;2023-01-10T14:54:10;35.13;;;4.82;;
10473;SDS011;5284;50.446;7.904;2023-01-10T14:59:25;25.33;;;4.68;;
10473;SDS011;5284;50.446;7.904;2023-01-10T15:04:30;43.55;;;6.65;;
10473;SDS011;5284;50.446;7.904;2023-01-10T15:09:34;26.48;;;5.05;;
10473;SDS011;5284;50.446;7.904;2023-01-10T15:14:39;19.65;;;3.42;;
10473;SDS011;5284;50.446;7.904;2023-01-10T15:19:44;30.52;;;3.28;;
10473;SDS011;5284;50.446;7.904;2023-01-10T15:24:58;34.42;;;7.78;;
10473;SDS011;5284;50.446;7.904;2023-01-10T15:30:07;33.78;;;4.30;;
10473;SDS011;5284;50.446;7.904;2023-01-10T15:35:12;30.45;;;3.90;;
10473;SDS011;5284;50.446;7.904;2023-01-10T15:40:22;20.67;;;2.78;;
10473;SDS011;5284;50.446;7.904;2023-01-10T15:45:28;19.75;;;4.38;;
10473;SDS011;5284;50.446;7.904;2023-01-10T15:50:38;31.00;;;3.83;;
10473;SDS011;5284;50.446;7.904;2023-01-10T15:55:55;22.88;;;3.20;;
10473;SDS011;5284;50.446;7.904;2023-01-10T16:06:21;26.38;;;5.15;;
10473;SDS011;5284;50.446;7.904;2023-01-10T16:11:27;34.13;;;6.15;;
10473;SDS011;5284;50.446;7.904;2023-01-10T16:16:56;26.13;;;4.57;;
10473;SDS011;5284;50.446;7.904;2023-01-10T16:21:59;35.72;;;7.07;;
10473;SDS011;5284;50.446;7.904;2023-01-10T16:27:03;25.52;;;6.38;;
10473;SDS011;5284;50.446;7.904;2023-01-10T16:32:12;29.95;;;4.68;;
10473;SDS011;5284;50.446;7.904;2023-01-10T16:37:15;26.60;;;4.70;;
10473;SDS011;5284;50.446;7.904;2023-01-10T16:42:19;30.77;;;4.18;;
10473;SDS011;5284;50.446;7.904;2023-01-10T16:47:40;23.33;;;5.25;;
10473;SDS011;5284;50.446;7.904;2023-01-10T16:52:43;22.05;;;3.97;;
10473;SDS011;5284;50.446;7.904;2023-01-10T16:57:46;35.40;;;6.38;;
10473;SDS011;5284;50.446;7.904;2023-01-10T17:02:51;27.80;;;5.45;;
10473;SDS011;5284;50.446;7.904;2023-01-10T17:07:53;33.30;;;4.78;;
10473;SDS011;5284;50.446;7.904;2023-01-10T17:12:56;32.42;;;5.63;;
10473;SDS011;5284;50.446;7.904;2023-01-10T17:18:04;29.58;;;5.95;;
10473;SDS011;5284;50.446;7.904;2023-01-10T17:23:06;40.30;;;6.70;;
10473;SDS011;5284;50.446;7.904;2023-01-10T17:28:11;28.58;;;4.65;;
10473;SDS011;5284;50.446;7.904;2023-01-10T17:33:16;16.35;;;4.30;;
10473;SDS011;5284;50.446;7.904;2023-01-10T17:38:19;31.83;;;4.40;;
10473;SDS011;5284;50.446;7.904;2023-01-10T17:43:22;35.13;;;5.68;;
10473;SDS011;5284;50.446;7.904;2023-01-10T17:48:27;26.48;;;4.68;;
10473;SDS011;5284;50.446;7.904;2023-01-10T17:53:30;27.73;;;4.85;;
10473;SDS011;5284;50.446;7.904;2023-01-10T17:58:33;34.40;;;5.53;;
10473;SDS011;5284;50.446;7.904;2023-01-10T18:03:38;23.02;;;6.63;;
10473;SDS011;5284;50.446;7.904;2023-01-10T18:08:41;22.67;;;5.78;;
10473;SDS011;5284;50.446;7.904;2023-01-10T18:13:44;30.40;;;6.53;;
10473;SDS011;5284;50.446;7.904;2023-01-10T18:18:48;21.88;;;5.65;;
10473;SDS011;5284;50.446;7.904;2023-01-10T18:23:52;22.23;;;4.07;;
10473;SDS011;5284;50.446;7.904;2023-01-10T18:28:57;27.25;;;4.47;;
10473;SDS011;5284;50.446;7.904;2023-01-10T18:34:01;26.10;;;4.50;;
10473;SDS011;5284;50.446;7.904;2023-01-10T18:39:06;24.25;;;7.18;;
10473;SDS011;5284;50.446;7.904;2023-01-10T18:44:09;21.33;;;3.28;;
10473;SDS011;5284;50.446;7.904;2023-01-10T18:49:13;24.67;;;6.93;;
10473;SDS011;5284;50.446;7.904;2023-01-10T18:54:18;18.27;;;5.40;;
10473;SDS011;5284;50.446;7.904;2023-01-10T18:59:21;28.70;;;5.90;;
10473;SDS011;5284;50.446;7.904;2023-01-10T19:04:26;23.67;;;5.38;;
10473;SDS011;5284;50.446;7.904;2023-01-10T19:09:28;18.20;;;3.60;;
10473;SDS011;5284;50.446;7.904;2023-01-10T19:14:32;19.13;;;4.38;;
10473;SDS011;5284;50.446;7.904;2023-01-10T19:19:36;36.80;;;4.18;;
10473;SDS011;5284;50.446;7.904;2023-01-10T19:24:39;24.17;;;5.20;;
10473;SDS011;5284;50.446;7.904;2023-01-10T19:29:42;24.58;;;6.03;;
10473;SDS011;5284;50.446;7.904;2023-01-10T19:34:49;19.48;;;5.25;;
10473;SDS011;5284;50.446;7.904;2023-01-10T19:39:52;28.85;;;4.53;;
10473;SDS011;5284;50.446;7.904;2023-01-10T19:44:56;32.45;;;3.50;;
10473;SDS011;5284;50.446;7.904;2023-01-10T19:50:00;29.98;;;10.85;;
10473;SDS011;5284;50.446;7.904;2023-01-10T19:55:03;25.88;;;6.45;;
10473;SDS011;5284;50.446;7.904;2023-01-10T20:00:07;30.02;;;6.93;;
10473;SDS011;5284;50.446;7.904;2023-01-10T20:05:16;26.27;;;7.18;;
10473;SDS011;5284;50.446;7.904;2023-01-10T20:10:19;25.65;;;4.50;;
10473;SDS011;5284;50.446;7.904;2023-01-10T20:15:22;18.70;;;3.55;;
10473;SDS011;5284;50.446;7.904;2023-01-10T20:20:27;10.85;;;2.92;;
10473;SDS011;5284;50.446;7.904;2023-01-10T20:25:29;19.17;;;3.00;;
10473;SDS011;5284;50.446;7.904;2023-01-10T20:30:32;25.02;;;3.78;;
10473;SDS011;5284;50.446;7.904;2023-01-10T20:35:38;26.63;;;2.75;;
10473;SDS011;5284;50.446;7.904;2023-01-10T20:40:43;17.08;;;2.78;;
10473;SDS011;5284;50.446;7.904;2023-01-10T20:45:46;29.98;;;3.00;;
10473;SDS011;5284;50.446;7.904;2023-01-10T20:50:50;17.00;;;3.58;;
10473;SDS011;5284;50.446;7.904;2023-01-10T20:55:53;15.90;;;2.50;;
10473;SDS011;5284;50.446;7.904;2023-01-10T21:01:01;18.50;;;2.78;;
10473;SDS011;5284;50.446;7.904;2023-01-10T21:06:06;19.83;;;3.05;;
10473;SDS011;5284;50.446;7.904;2023-01-10T21:11:11;15.75;;;2.65;;
10473;SDS011;5284;50.446;7.904;2023-01-10T21:16:16;8.20;;;2.47;;
10473;SDS011;5284;50.446;7.904;2023-01-10T21:21:22;11.73;;;2.38;;
10473;SDS011;5284;50.446;7.904;2023-01-10T21:26:26;16.55;;;1.98;;
10473;SDS011;5284;50.446;7.904;2023-01-10T21:31:29;8.90;;;2.05;;
10473;SDS011;5284;50.446;7.904;2023-01-10T21:36:33;6.60;;;1.85;;
10473;SDS011;5284;50.446;7.904;2023-01-10T21:41:36;10.88;;;1.35;;
10473;SDS011;5284;50.446;7.904;2023-01-10T21:47:05;4.65;;;1.20;;
10473;SDS011;5284;50.446;7.904;2023-01-10T21:52:10;6.35;;;1.10;;
10473;SDS011;5284;50.446;7.904;2023-01-10T21:57:12;5.78;;;1.58;;
10473;SDS011;5284;50.446;7.904;2023-01-10T22:02:19;2.50;;;1.13;;
10473;SDS011;5284;50.446;7.904;2023-01-10T22:07:26;5.85;;;1.08;;
10473;SDS011;5284;50.446;7.904;2023-01-10T22:12:29;9.15;;;1.08;;
10473;SDS011;5284;50.446;7.904;2023-01-10T22:17:32;3.55;;;1.48;;
10473;SDS011;5284;50.446;7.904;2023-01-10T22:22:37;3.97;;;1.10;;
10473;SDS011;5284;50.446;7.904;2023-01-10T22:27:40;3.95;;;1.08;;
10473;SDS011;5284;50.446;7.904;2023-01-10T22:32:45;5.55;;;1.50;;
10473;SDS011;5284;50.446;7.904;2023-01-10T22:37:49;8.63;;;1.38;;
10473;SDS011;5284;50.446;7.904;2023-01-10T22:42:54;1.40;;;0.82;;
10473;SDS011;5284;50.446;7.904;2023-01-10T22:47:57;2.63;;;1.08;;
10473;SDS011;5284;50.446;7.904;2023-01-10T22:53:02;4.72;;;1.10;;
10473;SDS011;5284;50.446;7.904;2023-01-10T22:58:05;2.55;;;1.38;;
10473;SDS011;5284;50.446;7.904;2023-01-10T23:03:08;2.22;;;1.10;;
10473;SDS011;5284;50.446;7.904;2023-01-10T23:08:12;3.83;;;1.27;;
10473;SDS011;5284;50.446;7.904;2023-01-10T23:13:15;2.58;;;0.88;;
10473;SDS011;5284;50.446;7.904;2023-01-10T23:18:18;1.95;;;0.93;;
10473;SDS011;5284;50.446;7.904;2023-01-10T23:23:22;2.72;;;1.05;;
10473;SDS011;5284;50.446;7.904;2023-01-10T23:28:25;8.48;;;1.13;;
10473;SDS011;5284;50.446;7.904;2023-01-10T23:33:28;4.35;;;1.30;;
10473;SDS011;5284;50.446;7.904;2023-01-10T23:38:34;3.08;;;1.45;;
10473;SDS011;5284;50.446;7.904;2023-01-10T23:43:37;5.75;;;0.90;;
10473;SDS011;5284;50.446;7.904;2023-01-10T23:48:40;8.20;;;2.53;;
